Time;durP1;ratioP1;P1;durP2;ratioP2;P2;SDS_P1;SDS_P2;PMS_P1;PMS_P2;Temp;Humidity;BMP_temperature;BMP_pressure;BME280_temperature;BME280_humidity;BME280_pressure;Samples;Min_cycle;Max_cycle;Signal;HPM_P1;HPM_P2
2021/12/28 00:00:32;;;;;;;27.90;15.75;;;;;;;10.22;70.92;94332.34;4914400;29;20032;-78
2021/12/28 00:02:58;;;;;;;18.25;11.27;;;;;;;10.25;70.42;94327.69;4930015;29;20298;-78
2021/12/28 00:05:24;;;;;;;21.70;12.98;;;;;;;10.23;70.50;94323.50;4917925;29;20032;-78
2021/12/28 00:07:52;;;;;;;15.82;11.13;;;;;;;10.19;70.87;94334.59;4946230;29;20031;-78
2021/12/28 00:10:18;;;;;;;14.93;10.30;;;;;;;10.13;70.96;94331.16;4947471;29;20054;-78
2021/12/28 00:12:44;;;;;;;15.93;9.80;;;;;;;10.03;70.98;94338.03;4945275;29;20090;-78
2021/12/28 00:17:59;;;;;;;20.95;11.25;;;;;;;9.87;72.39;94335.22;4917015;29;20110;-78
2021/12/28 00:20:30;;;;;;;18.15;11.35;;;;;;;9.92;71.86;94337.09;4945466;29;20036;-78
2021/12/28 00:22:59;;;;;;;22.85;12.40;;;;;;;10.02;71.79;94337.25;4928605;29;20039;-78
2021/12/28 00:25:24;;;;;;;27.08;15.73;;;;;;;10.09;71.13;94343.06;4913641;29;20130;-78
2021/12/28 00:27:50;;;;;;;27.08;15.70;;;;;;;10.05;70.99;94347.16;4909899;29;20050;-78
2021/12/28 00:30:15;;;;;;;21.05;12.77;;;;;;;10.07;70.97;94339.91;4946920;29;20046;-78
2021/12/28 00:32:41;;;;;;;16.83;11.38;;;;;;;10.09;71.48;94342.28;4929029;29;20059;-78
2021/12/28 00:35:07;;;;;;;18.98;12.38;;;;;;;10.11;70.80;94341.00;4944889;29;20043;-78
2021/12/28 00:37:32;;;;;;;16.02;10.93;;;;;;;10.15;70.98;94341.31;4944358;29;20633;-78
2021/12/28 00:39:57;;;;;;;14.95;10.82;;;;;;;10.10;70.38;94329.06;4952640;29;20044;-78
2021/12/28 00:42:23;;;;;;;15.43;10.68;;;;;;;10.01;71.38;94333.06;4957821;29;20526;-78
2021/12/28 00:44:49;;;;;;;12.57;10.13;;;;;;;10.09;70.81;94342.28;4932492;29;20031;-78
2021/12/28 00:47:15;;;;;;;17.67;10.98;;;;;;;10.08;70.85;94331.06;4927483;29;20067;-78
2021/12/28 00:49:40;;;;;;;20.85;10.68;;;;;;;10.12;70.50;94336.59;4948708;29;20039;-78
2021/12/28 00:52:06;;;;;;;29.42;15.82;;;;;;;10.12;70.07;94339.19;4947167;29;20064;-78
2021/12/28 00:54:42;;;;;;;26.48;11.73;;;;;;;10.06;70.42;94333.13;4946850;29;20040;-78
2021/12/28 00:57:08;;;;;;;13.07;10.60;;;;;;;9.98;70.60;94341.34;4905162;29;20043;-78
2021/12/28 00:59:36;;;;;;;14.60;10.23;;;;;;;10.00;70.49;94335.91;4943098;29;20059;-78
2021/12/28 01:02:01;;;;;;;16.98;10.52;;;;;;;9.99;70.54;94332.53;4943957;29;20039;-77
2021/12/28 01:04:31;;;;;;;15.82;10.43;;;;;;;9.93;70.53;94334.28;4925850;29;20050;-77
2021/12/28 01:06:58;;;;;;;16.35;11.32;;;;;;;9.98;70.78;94338.75;4943850;29;20499;-77
2021/12/28 01:09:30;;;;;;;17.10;11.05;;;;;;;10.05;70.28;94346.34;4947726;23;20051;-77
2021/12/28 01:11:59;;;;;;;25.35;13.70;;;;;;;10.02;70.24;94336.44;4942983;29;20039;-77
2021/12/28 01:14:24;;;;;;;15.82;9.05;;;;;;;10.01;70.74;94337.47;4943227;29;20035;-77
2021/12/28 01:16:50;;;;;;;15.77;9.85;;;;;;;10.00;70.54;94336.69;4925651;29;20042;-77
2021/12/28 01:19:15;;;;;;;12.95;9.10;;;;;;;10.10;70.10;94344.63;4926288;29;20036;-77
2021/12/28 01:21:40;;;;;;;15.15;9.75;;;;;;;10.08;70.05;94336.28;4912512;29;20644;-77
2021/12/28 01:24:06;;;;;;;17.98;10.93;;;;;;;10.18;69.65;94341.59;4952999;29;20035;-77
2021/12/28 01:26:31;;;;;;;31.60;17.02;;;;;;;10.19;69.54;94347.59;4951601;29;20039;-78
2021/12/28 01:28:57;;;;;;;31.17;17.38;;;;;;;10.15;69.95;94339.50;4941254;29;20057;-77
2021/12/28 01:31:22;;;;;;;29.20;15.30;;;;;;;10.16;69.84;94343.66;4945886;28;20043;-79
2021/12/28 01:33:48;;;;;;;17.83;11.10;;;;;;;10.14;70.04;94340.53;4936383;29;20089;-79
2021/12/28 01:36:13;;;;;;;18.75;12.60;;;;;;;10.17;69.95;94340.03;4948132;29;20050;-79
2021/12/28 01:38:39;;;;;;;23.75;13.98;;;;;;;10.19;69.71;94348.38;4938602;29;20039;-78
2021/12/28 01:41:09;;;;;;;21.73;12.70;;;;;;;10.07;70.14;94350.28;4960429;29;20050;-78
2021/12/28 01:43:34;;;;;;;20.02;11.80;;;;;;;9.99;70.63;94345.50;4942796;29;20039;-78
2021/12/28 01:46:00;;;;;;;25.95;14.55;;;;;;;10.00;70.70;94344.50;4944060;29;20142;-78
2021/12/28 01:48:30;;;;;;;24.15;13.88;;;;;;;10.02;70.50;94339.84;4944103;29;20059;-78
2021/12/28 01:50:58;;;;;;;21.35;14.27;;;;;;;10.06;70.48;94340.91;4958204;29;20034;-77
2021/12/28 01:53:24;;;;;;;28.08;16.33;;;;;;;10.06;70.11;94353.91;4946008;29;20039;-77
2021/12/28 01:55:53;;;;;;;24.27;14.00;;;;;;;10.07;70.64;94345.09;4945498;29;20035;-77
2021/12/28 01:58:19;;;;;;;30.38;16.88;;;;;;;10.05;70.00;94338.56;4925828;29;20027;-77
2021/12/28 02:00:46;;;;;;;18.38;11.70;;;;;;;10.05;70.22;94338.56;4925687;29;20077;-79
2021/12/28 02:03:13;;;;;;;14.13;9.55;;;;;;;9.97;70.33;94334.59;4917594;29;20035;-79
2021/12/28 02:05:41;;;;;;;13.52;9.70;;;;;;;10.01;70.95;94338.25;4925281;29;20027;-78
2021/12/28 02:08:07;;;;;;;16.17;11.02;;;;;;;10.03;69.66;94327.63;4925079;29;20094;-77
2021/12/28 02:10:32;;;;;;;19.13;12.43;;;;;;;10.05;70.21;94331.56;4906473;29;20043;-77
2021/12/28 02:12:58;;;;;;;26.23;14.13;;;;;;;10.05;69.78;94338.56;4981893;23;20049;-77
2021/12/28 02:15:23;;;;;;;17.38;11.95;;;;;;;10.10;70.01;94328.25;4935847;29;20039;-78
2021/12/28 02:17:49;;;;;;;15.48;10.30;;;;;;;10.06;70.37;94333.13;4953895;29;20038;-79
2021/12/28 02:20:16;;;;;;;14.68;9.50;;;;;;;9.91;70.09;94333.72;4952916;29;20031;-78
2021/12/28 02:22:45;;;;;;;15.18;10.60;;;;;;;9.95;69.93;94336.63;4945856;29;20039;-79
2021/12/28 02:25:11;;;;;;;17.63;11.43;;;;;;;10.05;69.73;94331.56;4920836;29;20078;-78
2021/12/28 02:27:36;;;;;;;15.75;9.43;;;;;;;10.01;70.74;94329.69;4939604;29;20094;-79
2021/12/28 02:30:06;;;;;;;15.02;10.40;;;;;;;10.00;70.65;94326.31;4942831;29;20043;-78
2021/12/28 02:32:32;;;;;;;16.92;10.35;;;;;;;10.07;70.26;94323.53;4960811;29;20034;-78
2021/12/28 02:34:58;;;;;;;14.70;10.15;;;;;;;10.10;69.57;94323.06;4943684;29;20043;-78
2021/12/28 02:37:23;;;;;;;16.65;11.50;;;;;;;10.17;69.47;94323.66;4941385;29;20467;-78
2021/12/28 02:39:49;;;;;;;21.23;11.18;;;;;;;10.21;69.88;94332.56;4922204;29;20043;-78
2021/12/28 02:42:16;;;;;;;20.13;12.35;;;;;;;10.22;69.30;94319.34;4956167;28;20623;-79
2021/12/28 02:44:42;;;;;;;19.35;12.23;;;;;;;10.26;68.95;94316.28;4925773;29;20058;-79
2021/12/28 02:47:07;;;;;;;19.48;9.95;;;;;;;10.26;69.64;94322.25;4968353;29;20051;-78
2021/12/28 02:49:33;;;;;;;16.23;10.48;;;;;;;10.30;69.07;94327.75;4943358;29;20412;-78
2021/12/28 02:51:58;;;;;;;14.50;10.43;;;;;;;10.25;69.49;94319.88;4911120;29;20062;-78
2021/12/28 02:54:26;;;;;;;21.23;11.88;;;;;;;10.28;68.94;94324.63;4941434;29;20035;-78
2021/12/28 02:56:51;;;;;;;24.92;13.73;;;;;;;10.21;69.71;94324.78;4942105;29;20031;-78
2021/12/28 02:59:16;;;;;;;24.83;16.60;;;;;;;10.20;69.36;94334.34;4942161;29;20066;-78
2021/12/28 03:01:42;;;;;;;35.00;19.55;;;;;;;10.26;69.62;94322.25;4939233;29;20046;-78
2021/12/28 03:04:08;;;;;;;35.53;19.15;;;;;;;10.25;69.67;94330.28;4956055;29;20066;-78
2021/12/28 03:06:34;;;;;;;43.78;23.40;;;;;;;10.27;69.15;94338.63;4941422;29;20035;-78
2021/12/28 03:09:00;;;;;;;42.67;24.83;;;;;;;10.23;69.15;94328.69;4939251;29;20085;-78
2021/12/28 03:11:27;;;;;;;37.75;21.20;;;;;;;10.23;69.05;94333.91;4957274;23;20093;-78
2021/12/28 03:13:58;;;;;;;29.60;14.25;;;;;;;10.22;69.84;94334.94;4947069;29;20051;-78
2021/12/28 03:16:24;;;;;;;22.13;13.32;;;;;;;10.22;70.02;94337.53;4948687;29;20056;-78
2021/12/28 03:18:49;;;;;;;116.85;46.22;;;;;;;10.28;69.43;94340.22;4936944;29;20028;-78
2021/12/28 03:21:22;;;;;;;113.43;44.65;;;;;;;10.26;68.87;94337.06;4914802;29;20039;-78
2021/12/28 03:23:48;;;;;;;31.65;15.88;;;;;;;10.21;69.53;94335.97;4914494;29;20031;-78
2021/12/28 03:26:13;;;;;;;36.38;18.85;;;;;;;10.25;69.72;94335.47;4930211;29;20514;-78
2021/12/28 03:28:41;;;;;;;30.88;17.55;;;;;;;10.23;69.36;94333.13;4922520;29;20035;-78
2021/12/28 03:31:10;;;;;;;27.13;14.95;;;;;;;10.21;69.40;94330.75;4930215;29;20043;-78
2021/12/28 03:33:36;;;;;;;39.03;20.40;;;;;;;10.26;69.16;94326.69;4929828;29;20079;-78
2021/12/28 03:36:03;;;;;;;60.00;27.25;;;;;;;10.22;69.33;94332.34;4930330;29;20059;-79
2021/12/28 03:38:29;;;;;;;29.70;15.48;;;;;;;10.29;69.11;94326.97;4898148;29;20126;-78
2021/12/28 03:40:54;;;;;;;46.70;24.70;;;;;;;10.30;68.76;94325.16;4938041;29;20035;-78
2021/12/28 03:43:20;;;;;;;57.45;25.92;;;;;;;10.18;69.41;94320.81;4937778;29;20112;-78
2021/12/28 03:45:46;;;;;;;48.50;24.80;;;;;;;10.20;69.32;94326.56;4930235;29;20041;-79
2021/12/28 03:48:11;;;;;;;65.72;33.22;;;;;;;10.15;69.55;94323.91;4945557;29;20050;-78
2021/12/28 03:50:37;;;;;;;56.13;30.08;;;;;;;10.16;69.67;94327.28;4930234;29;20027;-78
2021/12/28 03:53:03;;;;;;;68.10;33.30;;;;;;;10.10;69.55;94326.44;4927986;29;20065;-78
2021/12/28 03:55:28;;;;;;;44.70;26.55;;;;;;;10.12;69.82;94327.00;4947272;29;20047;-78
2021/12/28 03:57:59;;;;;;;57.13;25.90;;;;;;;10.15;69.59;94336.91;4945625;29;20892;-78
2021/12/28 04:00:27;;;;;;;41.65;19.83;;;;;;;10.12;70.17;94342.56;4946999;29;20496;-78
2021/12/28 04:02:52;;;;;;;28.73;15.77;;;;;;;10.02;69.72;94331.25;4945969;29;20035;-78
2021/12/28 04:05:17;;;;;;;27.35;15.85;;;;;;;10.00;70.62;94331.50;4914195;29;20034;-78
2021/12/28 04:07:44;;;;;;;28.10;16.15;;;;;;;9.96;70.06;94337.41;4929413;29;20054;-78
2021/12/28 04:10:11;;;;;;;38.05;16.98;;;;;;;9.97;69.70;94339.78;4931240;29;20396;-78
2021/12/28 04:12:36;;;;;;;27.67;17.08;;;;;;;9.93;70.00;94344.66;4929820;29;20107;-78
2021/12/28 04:15:03;;;;;;;32.17;18.17;;;;;;;9.95;70.21;94341.81;4930454;29;20699;-78
2021/12/28 04:17:28;;;;;;;56.60;30.38;;;;;;;9.99;69.71;94342.91;4928521;29;20043;-78
2021/12/28 04:19:54;;;;;;;32.90;19.73;;;;;;;10.01;69.99;94337.47;4929303;29;20032;-78
2021/12/28 04:22:22;;;;;;;31.40;19.23;;;;;;;10.00;69.83;94343.69;4929762;29;20738;-78
2021/12/28 04:24:47;;;;;;;28.85;17.08;;;;;;;9.99;70.00;94342.91;4952960;29;20031;-78
2021/12/28 04:27:13;;;;;;;30.42;19.08;;;;;;;10.03;69.74;94344.00;4930312;29;20118;-78
2021/12/28 04:29:38;;;;;;;36.90;21.17;;;;;;;10.04;69.31;94345.56;4945401;29;20047;-78
2021/12/28 04:32:04;;;;;;;57.00;30.13;;;;;;;10.05;69.17;94339.34;4928934;29;20236;-78
2021/12/28 04:34:29;;;;;;;81.57;38.08;;;;;;;10.06;69.42;94343.53;4946827;29;20119;-78
2021/12/28 04:36:57;;;;;;;60.10;29.83;;;;;;;10.07;69.47;94349.50;4945208;29;20672;-78
2021/12/28 04:39:22;;;;;;;77.72;41.13;;;;;;;10.06;69.04;94348.72;4945661;29;20042;-78
2021/12/28 04:41:47;;;;;;;102.43;49.05;;;;;;;10.00;69.74;94354.88;4945626;29;20031;-78
2021/12/28 04:44:13;;;;;;;115.13;59.58;;;;;;;10.02;69.21;94347.63;4945443;29;20090;-78
2021/12/28 04:46:39;;;;;;;123.65;61.55;;;;;;;9.98;69.11;94346.53;4928917;29;20031;-78
2021/12/28 04:49:05;;;;;;;104.95;56.65;;;;;;;9.93;70.17;94349.06;4929026;29;20047;-77
2021/12/28 04:51:30;;;;;;;85.70;43.70;;;;;;;9.92;70.07;94348.28;4927806;29;20455;-78
2021/12/28 04:53:57;;;;;;;79.88;47.03;;;;;;;9.99;70.24;94348.13;4944927;29;20567;-77
2021/12/28 04:56:23;;;;;;;94.30;49.60;;;;;;;9.92;69.52;94345.69;4943707;29;20611;-79
2021/12/28 04:58:48;;;;;;;102.55;52.45;;;;;;;9.91;69.53;94345.91;4942481;29;20126;-78
2021/12/28 05:01:13;;;;;;;109.68;55.30;;;;;;;9.97;69.69;94337.19;4947712;29;20035;-82
2021/12/28 05:03:39;;;;;;;103.95;52.05;;;;;;;9.96;69.83;94348.59;4953996;29;20040;-78
2021/12/28 05:06:04;;;;;;;95.70;51.28;;;;;;;9.94;69.62;94345.44;4946512;29;20035;-78
2021/12/28 05:08:30;;;;;;;87.18;48.70;;;;;;;9.92;69.89;94347.47;4945360;29;20431;-78
2021/12/28 05:10:55;;;;;;;74.72;37.58;;;;;;;9.88;70.53;94341.97;4929473;29;20166;-78
2021/12/28 05:13:22;;;;;;;73.50;40.55;;;;;;;9.90;70.29;94349.53;4932874;29;20569;-78
2021/12/28 05:15:48;;;;;;;94.60;49.28;;;;;;;9.81;70.18;94343.19;4932696;29;20082;-79
2021/12/28 05:18:17;;;;;;;79.30;44.20;;;;;;;9.86;69.98;94345.84;4932273;29;20062;-80
2021/12/28 05:20:43;;;;;;;66.40;38.00;;;;;;;9.86;70.55;94344.03;4928326;29;20051;-78
2021/12/28 05:23:09;;;;;;;73.47;37.95;;;;;;;9.84;70.00;94345.31;4926735;29;20499;-78
2021/12/28 05:25:34;;;;;;;85.38;48.42;;;;;;;9.76;69.56;94353.47;4944617;29;20047;-79
2021/12/28 05:28:00;;;;;;;93.32;52.33;;;;;;;9.68;69.97;94353.88;4945763;29;20503;-78
2021/12/28 05:30:26;;;;;;;101.00;53.08;;;;;;;9.58;69.74;94352.69;4945306;29;20028;-78
2021/12/28 05:32:51;;;;;;;83.60;51.03;;;;;;;9.51;68.75;94352.09;4925807;29;20036;-78
2021/12/28 05:35:16;;;;;;;69.57;38.22;;;;;;;9.45;70.43;94350.44;4944374;29;20027;-78
2021/12/28 05:37:55;;;;;;;78.65;46.60;;;;;;;9.32;70.11;94338.56;4928308;29;20047;-78
2021/12/28 05:40:20;;;;;;;24.70;14.82;;;;;;;9.31;71.84;94351.75;4930838;29;20501;-79
2021/12/28 05:42:46;;;;;;;86.18;49.28;;;;;;;9.35;70.83;94355.47;4928934;29;20126;-78
2021/12/28 05:45:11;;;;;;;99.65;54.00;;;;;;;9.42;70.22;94363.84;4950192;29;20092;-78
2021/12/28 05:47:37;;;;;;;123.72;70.50;;;;;;;9.35;70.18;94360.66;4944971;29;20039;-78
2021/12/28 05:50:04;;;;;;;110.05;67.68;;;;;;;9.39;69.94;94359.16;4945043;29;20058;-78
2021/12/28 05:52:29;;;;;;;123.97;76.10;;;;;;;9.39;69.40;94358.34;4943851;29;20090;-78
2021/12/28 05:54:55;;;;;;;135.55;80.55;;;;;;;9.41;69.75;94367.47;4944694;29;20496;-78
2021/12/28 05:57:20;;;;;;;142.85;82.53;;;;;;;9.37;70.26;94356.00;4952517;29;20035;-78
2021/12/28 05:59:46;;;;;;;161.82;100.07;;;;;;;9.42;70.13;94360.47;4925908;29;20039;-78
2021/12/28 06:02:11;;;;;;;151.38;92.75;;;;;;;9.42;70.30;94358.66;4944464;29;20050;-78
2021/12/28 06:04:36;;;;;;;145.63;88.25;;;;;;;9.45;69.97;94365.22;4944332;29;20040;-78
2021/12/28 06:07:02;;;;;;;147.10;88.95;;;;;;;9.44;69.25;94358.47;4951256;29;20043;-77
2021/12/28 06:09:28;;;;;;;158.55;92.38;;;;;;;9.42;70.71;94363.84;4925631;29;20039;-78
2021/12/28 06:11:54;;;;;;;158.98;94.47;;;;;;;9.37;69.77;94350.81;4944864;29;20488;-78
2021/12/28 06:14:19;;;;;;;154.13;101.75;;;;;;;9.46;69.78;94359.78;4941989;29;20034;-78
2021/12/28 06:16:44;;;;;;;162.00;103.35;;;;;;;9.46;69.59;94370.19;4944180;29;20042;-78
2021/12/28 06:19:10;;;;;;;184.13;112.68;;;;;;;9.46;69.31;94375.38;4946461;29;20075;-78
2021/12/28 06:21:35;;;;;;;354.58;192.07;;;;;;;9.46;69.13;94375.38;4947024;29;20035;-78
2021/12/28 06:24:01;;;;;;;256.35;145.43;;;;;;;9.40;69.76;94376.28;4946886;29;20085;-77
2021/12/28 06:26:27;;;;;;;230.48;129.57;;;;;;;9.36;69.77;94374.41;4954197;29;20091;-78
2021/12/28 06:28:53;;;;;;;188.20;114.82;;;;;;;9.40;68.47;94376.28;4937822;29;20030;-78
2021/12/28 06:31:18;;;;;;;98.93;58.75;;;;;;;9.44;69.92;94377.41;4938418;29;20039;-77
2021/12/28 06:33:50;;;;;;;153.77;93.30;;;;;;;9.46;69.36;94380.56;4927808;29;20031;-78
2021/12/28 06:38:44;;;;;;;125.68;71.75;;;;;;;9.43;68.42;94381.00;4973178;23;20427;-78
2021/12/28 06:41:09;;;;;;;134.07;77.60;;;;;;;9.33;69.11;94370.47;4957204;29;20054;-78
2021/12/28 06:43:35;;;;;;;121.80;66.55;;;;;;;9.35;68.99;94373.63;4938908;29;20054;-78
2021/12/28 06:46:00;;;;;;;103.50;59.08;;;;;;;9.37;68.76;94374.16;4954715;29;20035;-78
2021/12/28 06:48:26;;;;;;;99.20;56.97;;;;;;;9.43;68.72;94386.19;4924257;29;20885;-78
2021/12/28 06:50:51;;;;;;;98.03;53.60;;;;;;;9.42;69.59;94389.81;4939052;29;20030;-78
2021/12/28 06:53:17;;;;;;;38.15;24.13;;;;;;;9.46;69.64;94390.94;4922893;29;20046;-78
2021/12/28 06:55:42;;;;;;;36.33;22.52;;;;;;;9.49;70.56;94395.66;4955457;29;20061;-78
2021/12/28 06:58:11;;;;;;;48.13;28.13;;;;;;;9.51;70.94;94398.78;4957427;29;20039;-78
2021/12/28 07:00:37;;;;;;;48.20;29.55;;;;;;;9.61;69.76;94398.97;4932060;29;20123;-78
2021/12/28 07:03:04;;;;;;;48.42;28.65;;;;;;;9.73;69.43;94396.28;4955969;29;20515;-78
2021/12/28 07:05:29;;;;;;;53.42;30.65;;;;;;;9.82;69.04;94404.47;4955817;29;20031;-77
2021/12/28 07:07:55;;;;;;;61.17;34.60;;;;;;;9.88;68.81;94403.53;4922294;29;20090;-78
2021/12/28 07:10:44;;;;;;;55.55;32.35;;;;;;;9.94;68.69;94407.78;4922026;29;20070;-78
2021/12/28 07:13:10;;;;;;;59.13;32.70;;;;;;;9.98;68.79;94403.69;4940471;29;20053;-78
2021/12/28 07:15:35;;;;;;;100.78;53.13;;;;;;;10.05;68.86;94399.09;4921002;29;20039;-78
2021/12/28 07:18:01;;;;;;;130.63;64.07;;;;;;;10.16;68.07;94406.03;4957649;29;20039;-78
2021/12/28 07:20:28;;;;;;;167.27;92.22;;;;;;;10.25;67.78;94397.84;4939478;29;20039;-78
2021/12/28 07:22:54;;;;;;;190.48;103.32;;;;;;;10.28;67.43;94402.56;4957068;29;20027;-77
2021/12/28 07:25:24;;;;;;;176.75;99.15;;;;;;;10.20;67.86;94404.50;4938664;29;20050;-78
2021/12/28 07:27:50;;;;;;;169.75;101.53;;;;;;;10.23;68.28;94406.66;4923700;29;20542;-78
2021/12/28 07:30:15;;;;;;;173.90;99.68;;;;;;;10.20;67.76;94407.09;4955879;29;20027;-78
2021/12/28 07:32:41;;;;;;;161.23;88.53;;;;;;;10.28;68.43;94412.97;4938577;29;20050;-78
2021/12/28 07:35:10;;;;;;;145.57;81.00;;;;;;;10.36;67.56;94410.72;4922018;29;20043;-78
2021/12/28 07:37:36;;;;;;;139.68;79.68;;;;;;;10.39;67.33;94409.47;4923471;29;20050;-78
2021/12/28 07:40:05;;;;;;;140.77;81.30;;;;;;;10.44;67.97;94406.94;4922930;29;20048;-78
2021/12/28 07:42:30;;;;;;;139.05;77.47;;;;;;;10.54;67.19;94414.84;4938994;29;20578;-78
2021/12/28 07:44:56;;;;;;;127.15;73.72;;;;;;;10.62;67.60;94405.88;4938244;29;20028;-78
2021/12/28 07:47:21;;;;;;;123.88;71.68;;;;;;;10.69;67.22;94409.84;4942571;29;20074;-78
2021/12/28 07:49:46;;;;;;;106.60;66.03;;;;;;;10.76;66.45;94413.06;4922842;29;20035;-78
2021/12/28 07:52:12;;;;;;;93.97;57.35;;;;;;;10.83;66.80;94411.06;4956010;29;20042;-78
2021/12/28 07:54:37;;;;;;;85.82;52.90;;;;;;;10.95;66.49;94407.56;4922197;29;20031;-78
2021/12/28 07:57:03;;;;;;;86.50;51.38;;;;;;;11.04;66.25;94406.09;4939343;29;20043;-78
2021/12/28 07:59:29;;;;;;;114.93;70.10;;;;;;;11.18;65.48;94407.28;4942867;29;20031;-78
2021/12/28 08:01:54;;;;;;;122.55;74.40;;;;;;;11.28;65.89;94402.19;4949375;29;20043;-78
2021/12/28 08:04:19;;;;;;;98.25;60.42;;;;;;;11.38;65.47;94404.88;4966834;29;20027;-78
2021/12/28 08:06:47;;;;;;;94.03;59.33;;;;;;;11.45;65.35;94416.91;4949188;29;20090;-78
2021/12/28 08:09:12;;;;;;;61.53;36.17;;;;;;;11.49;65.08;94413.56;4921763;29;20047;-77
2021/12/28 08:11:38;;;;;;;74.75;43.80;;;;;;;11.54;65.31;94405.78;4936587;29;20056;-77
2021/12/28 08:14:04;;;;;;;73.35;44.25;;;;;;;11.58;64.55;94411.31;4952972;29;20604;-78
2021/12/28 08:16:48;;;;;;;76.35;40.33;;;;;;;11.65;64.43;94417.09;4939036;29;20042;-79
2021/12/28 08:19:14;;;;;;;69.35;39.85;;;;;;;11.76;64.41;94415.38;4927221;29;20044;-78
2021/12/28 08:21:39;;;;;;;62.35;35.35;;;;;;;11.79;63.56;94407.88;4954993;29;20570;-78
2021/12/28 08:24:05;;;;;;;57.83;35.63;;;;;;;11.88;63.65;94409.00;4953596;29;20046;-78
2021/12/28 08:26:31;;;;;;;47.83;27.60;;;;;;;11.94;63.20;94407.19;4955304;29;20057;-78
2021/12/28 08:28:56;;;;;;;51.33;27.60;;;;;;;12.03;63.02;94409.06;4906481;29;20063;-79
2021/12/28 08:31:21;;;;;;;41.35;22.63;;;;;;;12.16;62.85;94405.25;4937060;29;20082;-79
2021/12/28 08:33:47;;;;;;;43.60;25.63;;;;;;;12.33;62.72;94407.69;4936984;29;20043;-78
2021/12/28 08:36:12;;;;;;;30.73;20.00;;;;;;;12.41;61.64;94414.28;5001413;23;20047;-78
2021/12/28 08:38:39;;;;;;;29.27;16.75;;;;;;;12.54;61.42;94409.41;4943975;29;20099;-79
2021/12/28 08:41:05;;;;;;;29.67;19.08;;;;;;;12.77;61.32;94402.19;4944639;28;20032;-78
2021/12/28 08:43:31;;;;;;;37.75;19.48;;;;;;;12.87;59.89;94407.47;4959815;23;20038;-78
2021/12/28 08:45:56;;;;;;;25.13;17.20;;;;;;;12.87;59.97;94404.84;4972860;28;20474;-78
2021/12/28 08:48:21;;;;;;;29.77;17.35;;;;;;;12.91;59.16;94408.50;4960052;28;20062;-78
2021/12/28 08:50:49;;;;;;;27.70;17.85;;;;;;;12.91;59.42;94403.28;4974144;28;20502;-79
2021/12/28 08:53:17;;;;;;;28.75;18.88;;;;;;;12.88;59.43;94407.22;4948802;28;20546;-78
2021/12/28 08:55:42;;;;;;;33.80;16.08;;;;;;;12.80;59.37;94401.69;4949247;28;20035;-78
2021/12/28 08:58:10;;;;;;;23.42;15.95;;;;;;;12.84;59.11;94393.06;4964877;28;20085;-78
2021/12/28 09:00:36;;;;;;;19.02;14.20;;;;;;;12.80;59.19;94391.25;4965044;28;20066;-78
2021/12/28 09:03:02;;;;;;;16.17;11.82;;;;;;;12.80;59.14;94391.25;4972042;28;20479;-76
2021/12/28 09:05:27;;;;;;;14.38;9.90;;;;;;;12.86;58.92;94392.84;4961793;28;20169;-78
2021/12/28 09:07:53;;;;;;;16.95;10.10;;;;;;;13.02;58.57;94397.09;4988797;28;20038;-78
2021/12/28 09:10:19;;;;;;;13.73;9.68;;;;;;;13.25;57.33;94390.63;4981928;28;20031;-79
2021/12/28 09:12:48;;;;;;;15.48;9.85;;;;;;;13.44;57.00;94386.47;4960793;28;20062;-78
2021/12/28 09:15:13;;;;;;;12.52;7.68;;;;;;;13.55;56.20;94382.06;4993077;28;20062;-78
2021/12/28 09:17:40;;;;;;;13.15;8.77;;;;;;;13.65;55.93;94387.28;4981441;28;20035;-78
2021/12/28 09:20:12;;;;;;;13.63;9.35;;;;;;;13.65;55.04;94384.66;4969044;28;20106;-78
2021/12/28 09:22:37;;;;;;;15.55;9.32;;;;;;;13.73;54.88;94381.53;4956228;28;20043;-79
2021/12/28 09:25:06;;;;;;;11.98;8.65;;;;;;;13.75;54.69;94376.84;4979218;28;20414;-79
2021/12/28 09:27:32;;;;;;;14.73;9.73;;;;;;;13.78;55.37;94378.91;4954070;28;20054;-79
2021/12/28 09:29:57;;;;;;;20.92;10.23;;;;;;;13.82;55.17;94377.34;4964363;28;20066;-77
2021/12/28 09:32:23;;;;;;;17.27;10.73;;;;;;;13.93;54.64;94380.75;4964287;28;20042;-78
2021/12/28 09:34:49;;;;;;;14.30;9.65;;;;;;;14.03;54.56;94377.34;4972974;28;20562;-78
2021/12/28 09:37:15;;;;;;;24.45;11.75;;;;;;;14.03;54.20;94378.13;4951026;28;20039;-78
2021/12/28 09:39:40;;;;;;;40.08;19.25;;;;;;;13.63;55.27;94373.69;4948173;28;20441;-78
2021/12/28 09:42:06;;;;;;;29.85;15.98;;;;;;;13.54;55.54;94371.88;4948251;28;20042;-78
2021/12/28 09:44:32;;;;;;;22.88;16.23;;;;;;;13.36;56.54;94367.94;4980035;28;20038;-78
2021/12/28 09:47:01;;;;;;;20.73;15.07;;;;;;;13.10;57.67;94367.84;4964960;28;20094;-79
2021/12/28 09:49:28;;;;;;;25.23;13.70;;;;;;;13.17;56.72;94368.38;4964881;28;20050;-78
2021/12/28 09:51:55;;;;;;;17.05;12.27;;;;;;;13.25;56.72;94361.91;4949546;28;20057;-80
2021/12/28 09:54:25;;;;;;;13.45;10.82;;;;;;;13.33;56.45;94363.22;4934911;28;20031;-80
2021/12/28 09:56:55;;;;;;;17.02;11.50;;;;;;;13.26;56.16;94370.53;4959167;28;20038;-79
2021/12/28 09:59:21;;;;;;;25.10;11.27;;;;;;;13.30;56.36;94374.19;4963856;28;20042;-79
2021/12/28 10:01:46;;;;;;;13.18;9.68;;;;;;;13.36;56.25;94367.94;4966318;28;20069;-79
2021/12/28 10:04:12;;;;;;;14.27;11.27;;;;;;;13.44;56.37;94362.97;4950775;28;20089;-79
2021/12/28 10:06:37;;;;;;;19.15;10.93;;;;;;;13.46;56.55;94367.94;4949638;28;20045;-79
2021/12/28 10:09:35;;;;;;;33.15;11.32;;;;;;;13.54;55.79;94364.81;4966805;28;20034;-79
2021/12/28 10:12:00;;;;;;;18.50;12.40;;;;;;;13.58;56.17;94363.25;4927202;28;20430;-79
2021/12/28 10:14:27;;;;;;;16.50;11.55;;;;;;;13.63;56.11;94357.22;4964609;28;20042;-79
2021/12/28 10:17:03;;;;;;;17.08;11.80;;;;;;;13.61;55.83;94354.88;4949602;28;20093;-79
2021/12/28 10:19:43;;;;;;;21.83;12.27;;;;;;;13.58;56.04;94352.00;4981910;28;20039;-79
2021/12/28 10:22:25;;;;;;;18.48;11.40;;;;;;;13.63;56.09;94352.78;4983158;28;20747;-79
2021/12/28 10:24:52;;;;;;;17.52;12.38;;;;;;;13.58;55.98;94347.56;4975244;28;20043;-79
2021/12/28 10:27:19;;;;;;;24.58;13.15;;;;;;;13.65;55.94;94353.31;4974502;28;20041;-79
2021/12/28 10:29:45;;;;;;;14.82;11.95;;;;;;;13.78;55.58;94347.56;4966181;28;20043;-79
2021/12/28 10:32:19;;;;;;;20.50;12.63;;;;;;;13.87;55.78;94347.03;4974494;28;20167;-79
2021/12/28 10:34:53;;;;;;;14.57;11.23;;;;;;;13.96;55.11;94337.59;4975173;28;20031;-78
2021/12/28 10:37:21;;;;;;;18.98;12.05;;;;;;;14.01;55.13;94337.63;4948139;28;20474;-78
2021/12/28 10:39:47;;;;;;;22.25;12.30;;;;;;;14.04;54.60;94332.63;4966265;28;20070;-78
2021/12/28 10:42:58;;;;;;;17.20;11.82;;;;;;;14.07;54.57;94341.78;4949933;28;20106;-78
2021/12/28 10:45:50;;;;;;;17.85;10.93;;;;;;;13.79;55.27;94345.72;4973861;28;20039;-78
2021/12/28 10:48:16;;;;;;;18.50;11.98;;;;;;;13.90;55.00;94338.66;4964724;28;20081;-79
2021/12/28 10:51:02;;;;;;;18.88;12.65;;;;;;;13.97;54.94;94331.31;4971337;28;20463;-80
2021/12/28 10:53:44;;;;;;;13.93;11.10;;;;;;;13.97;54.67;94341.78;4956008;28;20045;-78
2021/12/28 10:56:19;;;;;;;16.30;12.27;;;;;;;13.98;54.88;94338.91;4948065;28;20043;-78
2021/12/28 10:58:51;;;;;;;21.25;14.90;;;;;;;13.97;55.21;94331.31;4956829;28;20058;-79
2021/12/28 11:01:20;;;;;;;29.40;18.40;;;;;;;13.97;55.96;94331.31;4949854;28;20041;-79
2021/12/28 11:03:53;;;;;;;27.63;17.58;;;;;;;13.98;56.22;94327.66;4948687;28;20047;-79
2021/12/28 11:06:21;;;;;;;35.13;17.58;;;;;;;13.96;56.10;94324.53;4953274;28;20035;-79
2021/12/28 11:08:48;;;;;;;29.38;18.08;;;;;;;13.77;56.67;94321.69;4977974;28;20026;-79
2021/12/28 11:11:15;;;;;;;30.33;17.20;;;;;;;13.81;56.12;94317.50;4950721;28;20557;-78
2021/12/28 11:13:41;;;;;;;29.45;18.50;;;;;;;13.88;56.46;94318.03;4967136;28;20027;-77
2021/12/28 11:16:13;;;;;;;26.60;16.85;;;;;;;13.78;56.45;94329.25;4964873;28;20042;-78
2021/12/28 11:18:43;;;;;;;25.65;16.50;;;;;;;13.84;56.48;94326.66;4951447;28;20035;-78
2021/12/28 11:21:13;;;;;;;30.55;16.65;;;;;;;13.85;56.11;94320.41;4966181;28;20034;-77
2021/12/28 11:23:39;;;;;;;27.50;17.67;;;;;;;13.61;57.04;94313.06;4963295;28;20062;-79